Time;durP1;ratioP1;P1;durP2;ratioP2;P2;SDS_P1;SDS_P2;PMS_P1;PMS_P2;Temp;Humidity;BMP_temperature;BMP_pressure;BME280_temperature;BME280_humidity;BME280_pressure;Samples;Min_cycle;Max_cycle;Signal;HPM_P1;HPM_P2
2022/08/11 00:00:56;;;;;;;3.70;2.47;;;;;;;21.83;36.83;100578.97;5014394;28;20634;-81
2022/08/11 00:03:22;;;;;;;5.50;2.40;;;;;;;21.82;37.03;100572.09;5031986;28;20186;-81
2022/08/11 00:05:50;;;;;;;4.67;2.30;;;;;;;21.77;36.87;100574.31;5013225;28;20182;-79
2022/08/11 00:08:26;;;;;;;6.83;2.40;;;;;;;21.72;37.27;100569.50;5046325;28;20314;-81
2022/08/11 00:10:55;;;;;;;6.63;2.70;;;;;;;21.68;37.31;100570.78;5019066;28;20229;-83
2022/08/11 00:13:22;;;;;;;4.60;2.70;;;;;;;21.76;37.30;100572.66;5009449;28;20245;-82
2022/08/11 00:15:48;;;;;;;6.83;2.60;;;;;;;21.67;37.41;100570.91;5016703;28;20250;-83
2022/08/11 00:18:15;;;;;;;7.50;2.60;;;;;;;21.67;37.28;100573.53;5014676;28;20194;-81
2022/08/11 00:20:44;;;;;;;2.90;2.40;;;;;;;21.67;37.23;100573.53;5011712;28;20237;-79
2022/08/11 00:23:15;;;;;;;2.87;2.57;;;;;;;21.64;37.36;100584.31;5024267;28;20709;-82
2022/08/11 00:25:50;;;;;;;4.57;2.60;;;;;;;21.65;37.63;100576.28;5014535;28;20240;-82
2022/08/11 00:28:22;;;;;;;7.77;2.70;;;;;;;21.63;37.60;100573.00;5014307;28;20205;-81
2022/08/11 00:30:49;;;;;;;4.80;2.57;;;;;;;21.61;37.72;100572.31;5016747;28;20278;-81
2022/08/11 00:33:15;;;;;;;5.63;2.50;;;;;;;21.62;37.36;100581.84;5023329;28;20332;-81
2022/08/11 00:35:42;;;;;;;5.57;2.67;;;;;;;21.62;37.73;100586.22;4999116;28;20211;-83
2022/08/11 00:38:09;;;;;;;3.03;2.50;;;;;;;21.55;37.97;100576.31;5012508;28;20172;-83
2022/08/11 00:40:54;;;;;;;3.57;2.40;;;;;;;21.32;38.38;100582.84;5032599;28;20242;-80
2022/08/11 00:43:36;;;;;;;3.47;2.57;;;;;;;21.23;38.61;100580.13;5013095;28;20673;-79
2022/08/11 00:46:24;;;;;;;9.50;2.83;;;;;;;21.01;39.69;100573.44;5028935;28;20531;-81
2022/08/11 00:49:17;;;;;;;5.30;2.83;;;;;;;20.91;40.17;100570.00;5027152;28;20189;-82
2022/08/11 00:52:08;;;;;;;3.37;3.07;;;;;;;20.56;41.57;100582.63;5019926;28;20233;-82
2022/08/11 00:55:08;;;;;;;4.33;2.67;;;;;;;20.42;41.80;100573.41;5028912;28;20183;-81
2022/08/11 00:58:11;;;;;;;4.70;2.77;;;;;;;20.40;41.76;100577.13;4984551;28;20647;-81
2022/08/11 01:00:48;;;;;;;6.03;2.73;;;;;;;20.31;41.97;100574.34;4999407;28;20234;-82
2022/08/11 01:03:39;;;;;;;3.63;2.57;;;;;;;20.15;42.75;100581.91;5014165;28;20768;-81
2022/08/11 01:06:42;;;;;;;6.90;2.90;;;;;;;19.94;43.12;100588.03;4968834;28;20234;-80
2022/08/11 01:09:19;;;;;;;5.30;2.60;;;;;;;19.86;43.46;100587.88;5028263;28;20204;-81
2022/08/11 01:11:54;;;;;;;4.03;2.60;;;;;;;19.81;43.33;100588.25;5001880;28;20223;-82
2022/08/11 01:14:56;;;;;;;5.80;2.80;;;;;;;19.66;43.58;100573.91;4988596;28;20687;-82
2022/08/11 01:17:34;;;;;;;3.23;2.93;;;;;;;19.56;44.16;100580.84;4989426;28;20330;-82
2022/08/11 01:20:27;;;;;;;3.50;2.33;;;;;;;19.47;44.54;100577.25;4974162;28;20367;-82
2022/08/11 01:23:13;;;;;;;7.93;3.00;;;;;;;19.34;44.81;100585.28;4968179;28;20215;-82
2022/08/11 01:26:18;;;;;;;7.00;2.90;;;;;;;19.27;44.82;100589.34;4994438;28;20206;-83
2022/08/11 01:28:56;;;;;;;2.87;2.30;;;;;;;19.25;44.92;100586.88;4989152;28;20286;-82
2022/08/11 01:31:53;;;;;;;3.30;2.67;;;;;;;19.17;45.12;100586.69;4976228;28;20234;-84
2022/08/11 01:34:47;;;;;;;4.13;2.90;;;;;;;19.14;45.21;100587.78;5013768;28;20191;-82
2022/08/11 01:37:30;;;;;;;3.27;2.97;;;;;;;19.22;45.15;100589.72;5012090;28;20166;-83
2022/08/11 01:40:19;;;;;;;3.83;2.60;;;;;;;19.08;45.75;100587.47;5013339;28;20181;-83
2022/08/11 01:45:58;;;;;;;4.13;3.00;;;;;;;18.95;47.01;100588.47;5012721;28;20236;-81
2022/08/11 01:48:48;;;;;;;3.17;2.87;;;;;;;18.71;48.17;100592.06;5021511;28;20174;-82
2022/08/11 01:51:29;;;;;;;4.90;3.20;;;;;;;18.69;48.55;100588.78;5021292;28;20362;-83
2022/08/11 01:54:05;;;;;;;3.60;2.80;;;;;;;18.66;48.52;100593.41;5016179;28;20274;-83
2022/08/11 01:56:51;;;;;;;3.97;2.70;;;;;;;18.71;48.81;100597.28;5011253;28;20182;-82
2022/08/11 01:59:26;;;;;;;3.97;2.93;;;;;;;18.67;48.95;100601.09;5012256;28;20215;-82
2022/08/11 02:02:46;;;;;;;3.60;2.47;;;;;;;18.58;49.60;100595.81;5036256;28;20319;-82
2022/08/11 02:05:49;;;;;;;3.47;2.80;;;;;;;18.43;49.28;100596.09;5012431;28;20265;-83
2022/08/11 02:08:34;;;;;;;4.37;2.63;;;;;;;18.47;50.31;100587.09;5027541;28;20270;-83
2022/08/11 02:11:29;;;;;;;10.40;2.57;;;;;;;18.40;50.54;100593.72;5019863;28;20252;-83
2022/08/11 02:14:20;;;;;;;3.40;2.93;;;;;;;18.29;51.16;100598.97;5022373;28;20201;-83
2022/08/11 02:16:58;;;;;;;7.93;2.80;;;;;;;18.29;51.94;100597.19;5019686;28;20191;-83
2022/08/11 02:25:44;;;;;;;4.80;2.87;;;;;;;18.16;51.04;100609.50;5012310;28;20604;-84
2022/08/11 02:28:27;;;;;;;4.73;2.90;;;;;;;18.14;51.33;100596.63;5027692;28;20240;-84
2022/08/11 02:34:04;;;;;;;4.87;3.10;;;;;;;18.05;52.24;100594.75;5008970;28;20189;-82
2022/08/11 02:36:47;;;;;;;4.13;2.97;;;;;;;18.03;52.41;100594.84;5011466;28;20634;-81
2022/08/11 02:39:17;;;;;;;3.20;2.90;;;;;;;18.01;52.36;100601.13;5022747;28;20187;-81
2022/08/11 02:45:25;;;;;;;4.53;2.80;;;;;;;17.80;53.23;100591.44;4999470;28;20194;-81
2022/08/11 02:50:48;;;;;;;4.27;2.87;;;;;;;17.80;52.97;100595.78;5017427;28;20320;-80
2022/08/11 02:53:29;;;;;;;3.40;2.67;;;;;;;17.66;53.63;100599.44;5021479;28;20187;-81
2022/08/11 02:56:00;;;;;;;6.33;3.27;;;;;;;17.63;53.67;100592.72;5012364;28;20624;-82
2022/08/11 02:58:40;;;;;;;4.23;3.20;;;;;;;17.49;53.67;100600.72;5012659;28;20186;-80
2022/08/11 03:01:17;;;;;;;4.50;3.07;;;;;;;17.47;54.50;100593.06;4996656;28;20304;-81
2022/08/11 03:03:57;;;;;;;3.70;2.67;;;;;;;17.43;54.39;100592.44;5016974;28;20265;-79
2022/08/11 03:06:35;;;;;;;4.43;2.80;;;;;;;17.51;54.20;100589.25;5010560;28;20179;-83
2022/08/11 03:09:12;;;;;;;3.63;2.70;;;;;;;17.49;54.12;100596.38;5027496;28;20178;-82
2022/08/11 03:17:46;;;;;;;4.73;3.17;;;;;;;17.40;55.45;100595.31;5000911;28;20265;-82
2022/08/11 03:20:27;;;;;;;5.87;3.07;;;;;;;17.43;54.84;100592.44;5019227;28;20274;-82
2022/08/11 03:23:11;;;;;;;4.47;3.10;;;;;;;17.38;55.19;100597.19;5024012;28;20190;-83
2022/08/11 03:26:18;;;;;;;4.83;2.90;;;;;;;17.26;56.59;100588.50;5026960;28;20654;-82
2022/08/11 03:28:52;;;;;;;3.87;2.93;;;;;;;17.17;56.65;100591.81;5004343;28;20269;-80
2022/08/11 03:31:23;;;;;;;5.37;3.47;;;;;;;17.19;57.21;100586.50;5004422;28;20746;-83
2022/08/11 03:34:12;;;;;;;3.43;3.10;;;;;;;17.05;57.09;100592.72;5019962;28;20214;-82
2022/08/11 03:36:42;;;;;;;4.70;3.10;;;;;;;17.14;57.61;100594.66;5031376;28;20182;-82
2022/08/11 03:39:45;;;;;;;3.50;2.83;;;;;;;17.03;57.82;100597.19;5031258;28;20206;-83
2022/08/11 03:42:33;;;;;;;7.33;3.00;;;;;;;17.09;57.58;100589.78;5039211;28;20224;-83
2022/08/11 03:44:59;;;;;;;5.43;3.10;;;;;;;17.07;58.37;100593.44;5030114;28;20183;-83
2022/08/11 03:47:46;;;;;;;5.80;3.30;;;;;;;16.98;58.96;100591.53;5032246;28;20601;-84
2022/08/11 03:50:42;;;;;;;3.97;3.07;;;;;;;16.96;59.16;100589.03;4998085;28;20681;-82
2022/08/11 03:53:16;;;;;;;4.80;3.47;;;;;;;16.99;59.20;100594.00;5024007;28;20657;-82
2022/08/11 03:56:11;;;;;;;4.57;3.17;;;;;;;16.97;59.69;100590.72;5013696;28;20190;-82
2022/08/11 03:59:02;;;;;;;8.10;3.20;;;;;;;16.94;60.01;100594.38;5013698;28;20187;-82
2022/08/11 04:01:48;;;;;;;5.93;3.60;;;;;;;16.91;59.82;100591.13;5034697;28;20227;-82
2022/08/11 04:04:29;;;;;;;6.20;3.90;;;;;;;17.00;60.08;100590.47;5015280;28;20579;-82
2022/08/11 04:07:19;;;;;;;8.40;3.70;;;;;;;16.99;60.17;100594.00;5030272;28;20369;-80
2022/08/11 04:10:05;;;;;;;4.93;3.23;;;;;;;16.91;60.07;100593.72;5015131;28;20685;-82
2022/08/11 04:12:56;;;;;;;7.97;3.80;;;;;;;16.89;60.34;100593.00;5002170;28;20250;-83
2022/08/11 04:15:59;;;;;;;4.23;3.20;;;;;;;16.85;60.66;100599.38;5026098;28;20296;-84
2022/08/11 04:18:33;;;;;;;3.83;3.00;;;;;;;16.74;60.82;100595.75;5005756;28;20269;-84
2022/08/11 04:21:19;;;;;;;3.33;3.07;;;;;;;16.81;60.69;100598.75;5030701;28;20707;-83
2022/08/11 04:24:03;;;;;;;7.70;3.47;;;;;;;16.81;60.95;100588.38;5019465;28;20182;-84
2022/08/11 04:26:34;;;;;;;6.83;3.37;;;;;;;16.91;61.07;100589.38;5033938;28;20570;-84
2022/08/11 04:29:11;;;;;;;3.67;2.93;;;;;;;16.94;60.41;100588.31;5024841;28;20187;-82
2022/08/11 04:31:57;;;;;;;6.30;3.47;;;;;;;17.06;60.76;100589.19;5029008;28;20810;-64
2022/08/11 04:34:39;;;;;;;4.37;3.43;;;;;;;17.22;60.28;100584.50;5003629;28;20210;-64
2022/08/11 04:37:33;;;;;;;4.67;3.67;;;;;;;17.37;59.43;100586.91;5012533;28;20646;-63
2022/08/11 04:40:05;;;;;;;5.30;3.60;;;;;;;17.29;60.19;100592.69;5012434;28;20186;-63
2022/08/11 04:43:20;;;;;;;8.50;4.33;;;;;;;17.38;59.96;100594.56;5003242;28;20214;-64
2022/08/11 04:46:20;;;;;;;5.87;3.83;;;;;;;17.57;59.75;100591.41;5000227;28;20219;-64
2022/08/11 05:01:41;;;;;;;7.33;3.77;;;;;;;17.99;58.48;100601.25;5014076;28;20236;-63
2022/08/11 05:08:02;;;;;;;7.33;3.60;;;;;;;17.98;58.43;100599.59;5010753;28;20705;-63
2022/08/11 05:10:45;;;;;;;6.90;3.93;;;;;;;18.05;58.57;100607.78;5000780;28;20328;-63
2022/08/11 05:36:40;;;;;;;6.03;3.57;;;;;;;19.34;51.88;100613.97;5012269;28;20266;-65
2022/08/11 05:58:37;;;;;;;4.37;2.93;;;;;;;20.51;46.03;100626.66;5013029;28;20217;-72
2022/08/11 06:01:03;;;;;;;4.00;2.93;;;;;;;20.56;45.19;100621.84;5012322;28;20259;-72
2022/08/11 06:03:31;;;;;;;8.93;3.57;;;;;;;20.71;45.20;100624.06;5019548;28;20534;-72
2022/08/11 06:05:58;;;;;;;4.23;3.00;;;;;;;20.92;44.23;100623.94;5009894;28;20185;-71
2022/08/11 06:08:29;;;;;;;6.13;2.77;;;;;;;21.03;43.98;100628.22;5011254;28;20241;-72
2022/08/11 06:10:59;;;;;;;6.10;2.77;;;;;;;21.12;42.86;100628.22;5017295;28;20632;-72
2022/08/11 06:13:26;;;;;;;5.43;2.83;;;;;;;21.22;42.81;100630.81;5026777;28;20222;-72
2022/08/11 06:15:54;;;;;;;6.33;2.83;;;;;;;21.49;42.05;100631.84;5020499;28;20191;-72
2022/08/11 06:18:20;;;;;;;7.43;2.50;;;;;;;21.71;41.08;100635.94;5010964;28;20277;-72
2022/08/11 06:20:54;;;;;;;2.80;2.40;;;;;;;21.70;40.80;100643.94;5013587;28;20304;-73
2022/08/11 06:23:22;;;;;;;3.53;2.77;;;;;;;21.83;40.61;100643.59;5030934;28;20191;-73
2022/08/11 06:25:50;;;;;;;4.63;2.50;;;;;;;21.97;39.50;100634.44;5010652;28;20202;-71
2022/08/11 06:28:18;;;;;;;5.37;2.90;;;;;;;22.24;39.25;100626.59;5010846;28;20178;-72
2022/08/11 06:30:45;;;;;;;5.40;2.50;;;;;;;22.34;38.70;100630.94;5013134;28;20257;-72
2022/08/11 06:33:15;;;;;;;9.53;2.87;;;;;;;22.43;38.86;100635.34;5033087;28;20376;-71
2022/08/11 06:36:05;;;;;;;4.93;2.63;;;;;;;22.58;38.46;100630.41;5010599;28;20186;-72
2022/08/11 06:38:45;;;;;;;5.40;2.70;;;;;;;22.88;37.97;100628.34;5012448;28;20185;-73
2022/08/11 06:41:33;;;;;;;5.10;2.33;;;;;;;23.19;37.43;100634.03;5013230;28;20225;-72
2022/08/11 06:44:04;;;;;;;5.97;2.83;;;;;;;23.90;36.48;100633.13;5019412;28;20178;-72
2022/08/11 06:46:32;;;;;;;6.67;2.70;;;;;;;24.57;34.48;100640.22;5009813;28;20219;-73
2022/08/11 06:49:02;;;;;;;7.70;2.60;;;;;;;25.00;33.51;100633.03;5021658;28;20540;-72
2022/08/11 06:51:27;;;;;;;5.53;2.33;;;;;;;25.88;32.50;100641.09;5014979;28;20592;-72
2022/08/11 06:53:58;;;;;;;4.03;2.47;;;;;;;25.60;31.61;100641.50;5015006;28;20186;-72
2022/08/11 07:02:59;;;;;;;6.30;2.30;;;;;;;27.32;29.17;100648.56;5025554;28;20231;-73
2022/08/11 07:05:49;;;;;;;6.93;2.40;;;;;;;27.28;28.53;100644.63;4977185;28;20222;-72
2022/08/11 07:17:33;;;;;;;4.47;2.42;;;;;;;28.01;27.93;100636.88;4964684;28;20290;-72
2022/08/11 07:31:20;;;;;;;7.15;2.67;;;;;;;29.02;26.99;100640.53;4971297;28;20251;-72
2022/08/11 07:33:48;;;;;;;4.10;2.20;;;;;;;29.94;25.38;100635.97;5001876;28;20221;-72
2022/08/11 07:36:15;;;;;;;6.57;2.50;;;;;;;30.23;25.12;100639.34;5037874;28;20195;-72
2022/08/11 07:38:49;;;;;;;8.75;2.30;;;;;;;30.11;25.37;100641.75;5014025;28;20179;-73
2022/08/11 07:41:18;;;;;;;3.97;2.30;;;;;;;29.58;25.59;100637.88;5011139;28;20717;-72
2022/08/11 07:43:50;;;;;;;2.95;2.20;;;;;;;28.62;26.99;100639.16;5015572;28;20186;-71
2022/08/11 07:54:31;;;;;;;4.50;2.40;;;;;;;29.78;25.28;100627.34;5014967;28;20708;-72
2022/08/11 07:56:57;;;;;;;6.22;2.92;;;;;;;28.37;27.63;100622.84;5014742;28;20194;-71
2022/08/11 08:18:40;;;;;;;6.70;2.60;;;;;;;30.99;24.31;100637.38;4995562;28;20289;-71
2022/08/11 08:21:13;;;;;;;4.43;2.38;;;;;;;29.91;25.34;100641.69;5009522;28;20700;-71
2022/08/11 08:23:42;;;;;;;9.15;2.30;;;;;;;29.79;25.58;100638.75;5027833;28;20203;-71
2022/08/11 08:30:46;;;;;;;5.97;2.55;;;;;;;30.00;25.23;100637.03;5007251;28;20730;-72
2022/08/11 08:31:44;;;;;;;5.97;2.33;;;;;;;29.83;25.51;100637.34;5024435;28;20233;-71
2022/08/11 08:34:12;;;;;;;7.13;2.25;;;;;;;29.22;26.41;100628.22;5018321;28;20206;-71
2022/08/11 08:36:41;;;;;;;7.78;2.75;;;;;;;31.17;24.61;100628.78;5012562;28;20179;-71
2022/08/11 08:39:07;;;;;;;6.35;2.35;;;;;;;30.52;25.09;100638.19;5013058;28;20206;-72
2022/08/11 08:41:37;;;;;;;4.18;2.33;;;;;;;30.14;25.22;100638.69;5027307;28;20680;-72
2022/08/11 08:44:07;;;;;;;11.23;2.88;;;;;;;30.90;24.30;100634.94;5020343;28;20658;-72
2022/08/11 08:46:41;;;;;;;10.05;2.80;;;;;;;31.20;24.13;100629.19;5014115;28;20688;-72
2022/08/11 08:49:10;;;;;;;4.20;2.60;;;;;;;31.80;23.97;100630.84;5022543;28;20186;-72
2022/08/11 08:51:38;;;;;;;8.38;2.55;;;;;;;32.24;22.94;100636.41;5028743;28;20290;-72
2022/08/11 08:54:07;;;;;;;5.65;2.40;;;;;;;31.80;23.24;100630.06;5014999;28;20270;-72
2022/08/11 08:56:33;;;;;;;5.90;2.63;;;;;;;32.94;22.30;100629.31;5012492;28;20202;-72
2022/08/11 08:59:00;;;;;;;3.20;1.92;;;;;;;31.94;22.67;100628.97;5012491;28;22461;-72
2022/08/11 09:01:30;;;;;;;4.45;2.40;;;;;;;31.38;23.86;100623.22;5026005;28;20225;-72
2022/08/11 09:03:56;;;;;;;5.97;2.35;;;;;;;30.82;24.70;100631.66;5015903;28;20646;-71
2022/08/11 09:06:22;;;;;;;5.75;2.10;;;;;;;30.21;25.15;100630.75;5012051;28;20233;-71
2022/08/11 09:08:48;;;;;;;4.22;1.90;;;;;;;30.32;24.92;100638.13;5012493;28;20561;-72
2022/08/11 09:14:02;;;;;;;4.15;2.33;;;;;;;31.37;23.40;100631.38;5026838;28;20236;-71
2022/08/11 09:16:27;;;;;;;2.45;2.08;;;;;;;31.32;23.65;100628.53;4998668;28;20206;-71
2022/08/11 09:18:53;;;;;;;8.73;2.45;;;;;;;32.22;22.64;100630.47;5011976;28;20187;-70
2022/08/11 09:21:23;;;;;;;6.97;2.13;;;;;;;32.02;23.01;100628.69;5015334;28;20221;-70
2022/08/11 09:29:20;;;;;;;4.30;2.20;;;;;;;33.92;21.04;100629.50;5013174;28;20249;-71
2022/08/11 09:31:46;;;;;;;4.78;2.40;;;;;;;34.14;21.03;100631.63;5018818;28;20979;-71
2022/08/11 09:34:14;;;;;;;4.18;2.10;;;;;;;33.81;21.06;100623.03;5013352;28;20285;-71
2022/08/11 09:42:15;;;;;;;3.95;2.17;;;;;;;32.51;21.93;100610.41;5028915;28;20245;-71
2022/08/11 09:44:47;;;;;;;4.93;2.40;;;;;;;32.35;22.58;100626.91;5012305;28;20178;-71
2022/08/11 09:47:22;;;;;;;4.30;2.17;;;;;;;32.56;22.07;100615.09;5012879;28;20189;-71
2022/08/11 09:49:51;;;;;;;4.35;2.03;;;;;;;34.31;20.35;100627.28;5004291;28;20191;-72
2022/08/11 09:52:17;;;;;;;7.18;2.38;;;;;;;32.72;21.29;100621.69;5019541;28;20260;-72
2022/08/11 09:54:46;;;;;;;7.45;2.42;;;;;;;32.51;21.86;100614.91;5012482;28;20214;-71
2022/08/11 09:59:56;;;;;;;5.45;2.10;;;;;;;32.77;21.93;100603.25;5015627;28;20248;-72
2022/08/11 10:02:27;;;;;;;2.95;2.20;;;;;;;33.56;21.01;100618.63;5002720;28;20697;-72
2022/08/11 10:07:00;;;;;;;9.60;2.42;;;;;;;32.84;21.20;100600.53;4992420;28;20188;-72
2022/08/11 10:07:49;;;;;;;5.38;1.90;;;;;;;32.12;20.77;100604.28;4990086;28;20652;-72
2022/08/11 10:10:21;;;;;;;8.70;2.17;;;;;;;32.07;22.00;100605.97;4979224;28;20214;-72
2022/08/11 10:12:49;;;;;;;3.20;2.00;;;;;;;32.32;21.72;100604.19;5039421;28;20202;-72
2022/08/11 10:15:33;;;;;;;3.40;1.88;;;;;;;32.68;21.60;100599.19;5010715;28;20294;-72
2022/08/11 10:20:50;;;;;;;4.15;2.30;;;;;;;33.63;20.76;100603.34;5014710;28;20231;-73
2022/08/11 10:28:47;;;;;;;11.20;2.00;;;;;;;34.53;18.76;100606.19;5006312;28;20189;-71
2022/08/11 10:34:02;;;;;;;7.72;2.22;;;;;;;34.08;19.68;100596.00;5020350;28;20197;-70
2022/08/11 10:36:56;;;;;;;1.73;1.45;;;;;;;32.77;21.01;100595.25;5010745;28;20259;-71
2022/08/11 10:39:24;;;;;;;2.85;2.25;;;;;;;32.50;21.00;100587.47;5043461;28;20278;-72
2022/08/11 10:44:45;;;;;;;3.63;1.98;;;;;;;34.46;18.83;100594.84;5011336;28;20692;-72
2022/08/11 11:01:00;;;;;;;3.05;1.90;;;;;;;28.51;25.82;100552.34;5006404;28;20220;-71
2022/08/11 11:03:28;;;;;;;8.07;3.15;;;;;;;28.85;25.79;100556.06;5019001;28;20364;-72
2022/08/11 11:06:04;;;;;;;6.20;2.17;;;;;;;28.69;25.75;100543.16;5009504;28;20625;-72
2022/08/11 11:11:17;;;;;;;2.50;2.30;;;;;;;28.98;25.12;100536.84;5024737;28;20563;-72
2022/08/11 11:19:23;;;;;;;3.75;2.13;;;;;;;29.05;25.14;100531.56;5012903;28;20202;-72
2022/08/11 11:21:52;;;;;;;2.25;2.00;;;;;;;28.76;25.85;100528.13;5017583;28;20290;-72
2022/08/11 11:24:42;;;;;;;2.63;1.98;;;;;;;29.09;26.04;100525.69;5011264;28;20191;-72
2022/08/11 11:27:26;;;;;;;5.43;2.13;;;;;;;29.53;25.34;100521.00;5011785;28;20232;-72
2022/08/11 11:30:10;;;;;;;4.30;1.90;;;;;;;29.40;23.90;100519.13;5010112;28;20592;-72
2022/08/11 11:32:47;;;;;;;5.57;2.05;;;;;;;29.30;24.71;100516.84;4963724;28;20262;-72
2022/08/11 11:36:00;;;;;;;2.40;2.03;;;;;;;28.85;24.34;100511.06;5007487;28;20530;-72
2022/08/11 11:38:27;;;;;;;4.13;2.42;;;;;;;28.58;25.33;100505.59;5009655;28;20201;-73
2022/08/11 11:41:34;;;;;;;2.63;1.60;;;;;;;28.90;25.04;100502.56;5014630;28;20555;-73
2022/08/11 11:43:41;;;;;;;3.72;2.22;;;;;;;28.82;25.25;100500.88;5015543;28;20428;-74
2022/08/11 11:46:08;;;;;;;2.78;2.33;;;;;;;28.93;25.05;100497.69;4989336;28;20632;-73
2022/08/11 11:48:35;;;;;;;2.75;1.85;;;;;;;28.85;25.05;100494.38;5026679;28;21445;-73
2022/08/11 11:51:01;;;;;;;3.10;2.45;;;;;;;28.92;24.92;100490.75;5002573;28;20232;-73
2022/08/11 11:53:27;;;;;;;4.03;2.10;;;;;;;29.09;24.06;100493.09;5031410;28;20186;-73
2022/08/11 11:55:53;;;;;;;3.00;2.35;;;;;;;28.97;24.31;100493.63;5014431;28;20197;-74
2022/08/11 12:01:17;;;;;;;3.58;2.10;;;;;;;28.50;24.36;100485.41;5020576;28;20381;-74
2022/08/11 12:03:46;;;;;;;6.75;2.40;;;;;;;28.77;24.71;100477.63;5025510;28;20174;-76
2022/08/11 12:06:13;;;;;;;2.75;2.17;;;;;;;28.94;24.04;100477.34;5012354;28;20190;-75
2022/08/11 12:08:38;;;;;;;3.13;1.73;;;;;;;29.13;23.45;100475.78;5012835;28;20554;-75
2022/08/11 12:13:54;;;;;;;5.22;2.30;;;;;;;28.89;24.35;100461.19;5021200;28;20236;-78
2022/08/11 12:16:22;;;;;;;3.50;1.98;;;;;;;29.26;23.81;100459.97;5017784;28;20322;-76
2022/08/11 12:18:55;;;;;;;2.40;1.95;;;;;;;29.08;23.08;100452.53;5013086;28;20170;-75
2022/08/11 12:21:22;;;;;;;3.28;2.00;;;;;;;29.18;23.39;100446.06;5025382;28;20232;-76
2022/08/11 12:29:19;;;;;;;2.20;1.95;;;;;;;29.51;23.69;100456.81;5014471;28;20198;-75
2022/08/11 12:31:46;;;;;;;4.95;2.05;;;;;;;29.29;23.33;100456.13;5030613;28;20232;-75
2022/08/11 12:34:16;;;;;;;7.35;2.35;;;;;;;29.35;23.61;100443.91;5014407;28;20248;-76
2022/08/11 12:36:53;;;;;;;3.65;2.13;;;;;;;29.20;23.44;100444.03;5046754;28;20186;-75
2022/08/11 12:53:28;;;;;;;2.30;2.00;;;;;;;29.94;22.98;100422.03;5030405;28;20392;-77
2022/08/11 12:58:49;;;;;;;2.65;2.05;;;;;;;29.44;23.65;100410.91;5012779;28;20244;-77
2022/08/11 13:06:44;;;;;;;3.90;2.28;;;;;;;29.56;23.03;100403.19;5013693;28;20292;-77
2022/08/11 13:09:12;;;;;;;3.42;2.38;;;;;;;29.55;22.72;100407.66;5045267;28;20183;-75
2022/08/11 13:14:28;;;;;;;5.05;2.13;;;;;;;29.60;22.66;100404.44;5016526;28;20196;-77
2022/08/11 13:19:40;;;;;;;2.85;2.55;;;;;;;29.31;22.75;100395.78;5013007;28;20185;-75
2022/08/11 13:22:06;;;;;;;2.40;2.10;;;;;;;29.59;22.87;100393.00;5034429;28;20312;-73
2022/08/11 13:24:33;;;;;;;5.53;2.33;;;;;;;29.67;22.69;100393.81;5011094;28;20674;-73
2022/08/11 13:26:59;;;;;;;2.78;2.35;;;;;;;29.52;22.56;100409.91;5013158;28;20190;-75
2022/08/11 13:29:27;;;;;;;7.40;2.13;;;;;;;29.56;23.10;100381.97;5012289;28;20190;-74
2022/08/11 13:31:55;;;;;;;2.50;2.30;;;;;;;29.84;22.69;100376.47;5018771;28;20225;-73
2022/08/11 13:34:23;;;;;;;2.60;2.40;;;;;;;30.00;22.40;100377.13;5012007;28;20201;-73
2022/08/11 13:36:54;;;;;;;8.07;2.22;;;;;;;29.86;22.35;100368.34;5011319;28;20198;-73
2022/08/11 13:39:22;;;;;;;5.03;2.35;;;;;;;30.18;22.48;100365.88;5012828;28;20182;-73
2022/08/11 13:41:48;;;;;;;3.45;2.30;;;;;;;30.46;21.64;100362.16;5030742;28;20316;-73
2022/08/11 13:44:16;;;;;;;4.43;2.30;;;;;;;30.58;22.01;100369.28;5013141;28;20265;-74
2022/08/11 13:46:42;;;;;;;4.75;2.17;;;;;;;30.34;21.52;100376.06;5011361;28;20179;-74
2022/08/11 13:49:09;;;;;;;2.83;2.25;;;;;;;30.01;21.64;100376.13;5015805;28;20183;-73
2022/08/11 13:51:38;;;;;;;3.28;2.47;;;;;;;30.01;22.13;100354.91;5026941;28;20229;-74
2022/08/11 13:54:17;;;;;;;3.92;2.40;;;;;;;30.04;22.48;100357.13;5018541;28;20183;-73
2022/08/11 13:56:45;;;;;;;4.63;2.40;;;;;;;29.93;21.98;100351.44;5011365;28;20179;-73
2022/08/11 13:59:13;;;;;;;6.50;3.00;;;;;;;29.90;22.23;100348.38;5011328;28;20297;-74
2022/08/11 14:01:47;;;;;;;2.80;1.92;;;;;;;30.12;22.24;100341.00;5027793;28;20225;-74
2022/08/11 14:04:24;;;;;;;2.60;2.40;;;;;;;29.92;22.54;100341.84;5012755;28;20190;-75
2022/08/11 14:06:52;;;;;;;3.67;2.25;;;;;;;30.22;22.57;100333.44;5012581;28;20214;-74
2022/08/11 14:09:26;;;;;;;6.63;2.53;;;;;;;30.70;22.22;100344.72;5012480;28;20266;-74
2022/08/11 14:14:42;;;;;;;4.00;2.33;;;;;;;30.26;21.86;100331.16;5017653;28;20217;-74
2022/08/11 14:17:10;;;;;;;4.32;2.70;;;;;;;30.28;21.73;100326.47;5013042;28;20179;-72
2022/08/11 14:19:40;;;;;;;3.45;2.60;;;;;;;30.09;22.06;100331.63;5010915;28;20175;-75
2022/08/11 14:22:06;;;;;;;4.05;2.00;;;;;;;30.34;21.58;100327.47;5015964;28;20221;-75
2022/08/11 14:24:35;;;;;;;3.72;2.00;;;;;;;30.35;21.17;100329.09;5023817;28;20635;-73
2022/08/11 14:27:01;;;;;;;3.88;2.50;;;;;;;30.46;20.69;100322.34;5007358;28;21019;-73
2022/08/11 14:29:28;;;;;;;5.90;2.30;;;;;;;30.51;20.83;100320.69;5010848;28;20647;-73
2022/08/11 14:31:56;;;;;;;6.60;2.83;;;;;;;30.35;20.58;100318.50;5018408;28;20232;-73
2022/08/11 14:34:25;;;;;;;2.95;2.20;;;;;;;30.33;20.97;100318.72;5013749;28;20248;-74
2022/08/11 14:36:53;;;;;;;4.80;2.33;;;;;;;30.21;21.10;100312.41;5010443;28;20210;-73
2022/08/11 14:39:27;;;;;;;2.97;2.20;;;;;;;30.44;20.71;100309.28;5011937;28;20183;-73
2022/08/11 14:47:34;;;;;;;4.95;2.25;;;;;;;30.55;20.66;100299.88;5001431;28;20967;-74
2022/08/11 14:50:01;;;;;;;4.32;2.45;;;;;;;30.25;21.17;100295.03;5018285;28;20193;-73
2022/08/11 14:52:30;;;;;;;4.10;2.70;;;;;;;30.20;20.94;100300.16;5016815;28;20249;-74
2022/08/11 14:57:42;;;;;;;3.58;2.05;;;;;;;30.30;21.23;100294.44;5011404;28;20653;-73
2022/08/11 15:00:14;;;;;;;4.18;2.63;;;;;;;30.22;21.12;100285.66;4992886;28;20205;-74
2022/08/11 15:05:25;;;;;;;3.17;2.10;;;;;;;30.59;20.50;100282.50;5011727;28;20213;-74
2022/08/11 15:07:53;;;;;;;3.22;2.40;;;;;;;30.63;20.26;100274.94;5003344;28;20584;-74
2022/08/11 15:10:19;;;;;;;4.30;2.47;;;;;;;30.52;20.63;100271.91;5014324;28;20340;-73
2022/08/11 15:12:45;;;;;;;5.75;2.55;;;;;;;30.58;21.23;100281.69;5049790;28;20257;-73
2022/08/11 15:17:58;;;;;;;5.40;2.55;;;;;;;30.58;20.60;100284.34;5036221;28;20189;-75
2022/08/11 15:25:58;;;;;;;4.32;2.25;;;;;;;30.60;21.15;100270.84;5014080;28;20189;-74
2022/08/11 15:45:48;;;;;;;2.63;2.08;;;;;;;30.82;19.82;100251.94;5014560;28;20725;-73
2022/08/11 15:48:17;;;;;;;3.65;2.13;;;;;;;30.76;20.08;100256.25;5023059;28;20268;-74
2022/08/11 15:50:49;;;;;;;3.63;2.00;;;;;;;30.74;20.04;100256.47;5016769;28;20244;-74
2022/08/11 15:53:27;;;;;;;3.13;2.25;;;;;;;30.80;20.22;100246.03;5035019;28;20183;-74
2022/08/11 15:55:54;;;;;;;3.60;2.45;;;;;;;30.84;20.28;100244.59;5014547;28;20232;-74
2022/08/11 16:04:10;;;;;;;3.30;2.22;;;;;;;30.37;20.60;100242.16;5024277;28;20197;-74
2022/08/11 16:06:54;;;;;;;3.28;2.38;;;;;;;30.49;20.54;100235.19;5014492;28;20226;-74
2022/08/11 16:09:28;;;;;;;2.90;2.30;;;;;;;30.63;20.57;100243.88;5013469;28;20232;-74
2022/08/11 16:11:57;;;;;;;6.10;2.15;;;;;;;30.70;20.15;100234.03;5031053;28;20311;-74
2022/08/11 16:17:10;;;;;;;4.82;2.22;;;;;;;30.54;20.66;100234.53;5022541;28;20269;-74
2022/08/11 16:19:38;;;;;;;5.90;2.60;;;;;;;30.74;20.50;100224.63;5013267;28;20207;-75
2022/08/11 16:22:08;;;;;;;4.38;2.40;;;;;;;30.69;20.35;100231.63;5018176;28;20226;-74
2022/08/11 16:24:43;;;;;;;4.22;2.17;;;;;;;30.70;20.38;100223.44;5009986;28;20175;-74
2022/08/11 16:27:10;;;;;;;4.28;2.22;;;;;;;30.75;20.61;100226.25;5014445;28;20174;-74
2022/08/11 16:29:37;;;;;;;6.30;2.28;;;;;;;30.61;20.74;100221.25;5000200;28;20600;-74
2022/08/11 16:32:16;;;;;;;6.00;2.22;;;;;;;30.50;20.60;100225.38;5037400;28;20260;-74
2022/08/11 16:40:21;;;;;;;3.85;2.08;;;;;;;30.30;20.82;100212.19;5008538;28;20241;-74
2022/08/11 16:48:20;;;;;;;3.58;2.50;;;;;;;30.29;20.96;100213.19;5022423;28;20283;-74
2022/08/11 16:50:46;;;;;;;3.42;2.17;;;;;;;30.34;20.87;100208.06;5015799;28;20229;-74